Time;durP1;ratioP1;P1;durP2;ratioP2;P2;SDS_P1;SDS_P2;PMS_P1;PMS_P2;Temp;Humidity;BMP_temperature;BMP_pressure;BME280_temperature;BME280_humidity;BME280_pressure;Samples;Min_cycle;Max_cycle;Signal;HPM_P1;HPM_P2
2020/12/01 00:01:36;;;;;;;36.55;16.95;;;;;;;-1.22;86.05;99097.25;5026425;28;20104;-75
2020/12/01 00:04:01;;;;;;;40.17;17.23;;;;;;;-1.08;86.14;99068.75;5017644;28;20083;-74
2020/12/01 00:06:30;;;;;;;35.42;16.67;;;;;;;-0.98;86.25;99072.34;5031516;28;20113;-74
2020/12/01 00:08:55;;;;;;;35.22;16.48;;;;;;;-1.04;86.81;99063.06;5015571;28;20034;-73
2020/12/01 00:11:20;;;;;;;37.80;16.58;;;;;;;-1.19;87.71;99043.06;5020547;28;20390;-75
2020/12/01 00:13:46;;;;;;;31.60;13.75;;;;;;;-1.21;88.45;99042.34;5034676;28;20032;-74
2020/12/01 00:16:13;;;;;;;41.08;16.08;;;;;;;-1.22;88.93;99027.38;5035522;28;20547;-73
2020/12/01 00:18:39;;;;;;;37.08;15.77;;;;;;;-1.20;88.93;99020.16;5033376;28;20471;-74
2020/12/01 00:21:09;;;;;;;36.08;16.13;;;;;;;-1.07;88.46;99035.91;5014105;28;20110;-74
2020/12/01 00:23:35;;;;;;;39.30;15.45;;;;;;;-1.06;88.64;99011.91;5020516;28;20029;-74
2020/12/01 00:26:00;;;;;;;35.72;14.85;;;;;;;-1.12;88.63;99013.25;5022086;28;20540;-74
2020/12/01 00:28:25;;;;;;;42.05;16.65;;;;;;;-1.05;88.51;99000.31;5032009;28;20025;-74
2020/12/01 00:30:50;;;;;;;37.22;14.95;;;;;;;-1.02;88.69;99002.72;5031720;28;20089;-74
2020/12/01 00:33:16;;;;;;;36.17;14.98;;;;;;;-1.07;88.78;98994.28;5030226;28;20030;-73
2020/12/01 00:35:41;;;;;;;36.75;15.70;;;;;;;-1.10;89.14;98983.94;5015854;28;20579;-77
2020/12/01 00:38:06;;;;;;;40.05;15.35;;;;;;;-1.09;89.24;98972.31;5019780;28;20079;-77
2020/12/01 00:40:32;;;;;;;37.30;15.07;;;;;;;-1.07;89.14;98956.25;5020029;28;20040;-77
2020/12/01 00:42:57;;;;;;;34.60;15.00;;;;;;;-0.96;89.22;98969.50;5014560;28;20571;-77
2020/12/01 00:45:22;;;;;;;38.40;15.68;;;;;;;-0.90;89.23;98974.31;5015227;28;20026;-75
2020/12/01 00:47:48;;;;;;;36.35;16.35;;;;;;;-0.88;88.81;98973.22;5025050;28;20113;-75
2020/12/01 00:50:18;;;;;;;34.78;15.50;;;;;;;-0.82;88.75;98974.50;5036597;28;20032;-72
2020/12/01 00:52:43;;;;;;;34.78;14.60;;;;;;;-0.80;89.03;98955.81;5037197;28;20029;-73
2020/12/01 00:55:09;;;;;;;37.75;14.60;;;;;;;-0.74;88.85;98964.09;5032036;28;20025;-73
2020/12/01 00:57:34;;;;;;;35.95;14.95;;;;;;;-0.81;88.78;98941.69;5028110;28;20238;-72
2020/12/01 00:59:59;;;;;;;34.90;15.25;;;;;;;-0.83;88.90;98943.63;5023615;28;20029;-72
2020/12/01 01:02:25;;;;;;;39.03;16.15;;;;;;;-0.84;89.29;98923.31;5040010;28;20033;-73
2020/12/01 01:04:50;;;;;;;37.50;15.40;;;;;;;-0.87;88.95;98931.56;5027675;28;20572;-72
2020/12/01 01:07:18;;;;;;;32.67;14.70;;;;;;;-0.84;88.95;98927.81;5042018;28;20021;-72
2020/12/01 01:09:43;;;;;;;38.03;15.57;;;;;;;-0.82;89.19;98934.66;5037305;28;20092;-72
2020/12/01 01:12:09;;;;;;;38.85;16.08;;;;;;;-0.78;89.13;98928.16;5054512;28;20025;-72
2020/12/01 01:14:34;;;;;;;33.88;15.73;;;;;;;-0.74;88.99;98926.06;5035014;28;20131;-73
2020/12/01 01:17:01;;;;;;;34.20;14.45;;;;;;;-0.73;89.11;98928.59;5034096;28;20083;-74
2020/12/01 01:19:26;;;;;;;38.00;15.63;;;;;;;-0.77;89.28;98910.38;5043029;28;20025;-73
2020/12/01 01:21:52;;;;;;;35.42;14.70;;;;;;;-0.81;89.53;98898.31;5039687;28;20029;-73
2020/12/01 01:24:18;;;;;;;38.50;16.88;;;;;;;-0.82;88.96;98896.66;5042378;28;20025;-75
2020/12/01 01:26:51;;;;;;;38.35;16.05;;;;;;;-0.63;89.40;98927.81;5035127;28;20041;-75
2020/12/01 01:29:17;;;;;;;33.13;14.93;;;;;;;-0.63;89.09;98941.09;5019866;28;20487;-75
2020/12/01 01:31:42;;;;;;;37.25;16.13;;;;;;;-0.80;89.69;98923.94;5025111;28;20032;-72
2020/12/01 01:34:08;;;;;;;41.17;16.95;;;;;;;-0.62;89.59;98958.75;5038473;28;20033;-74
2020/12/01 01:36:34;;;;;;;42.42;16.00;;;;;;;-0.65;90.07;98961.66;5037213;28;20041;-73
2020/12/01 01:39:00;;;;;;;38.80;15.70;;;;;;;-0.70;89.84;98941.63;5027307;28;20045;-73
2020/12/01 01:41:29;;;;;;;33.00;14.88;;;;;;;-0.61;89.94;98947.13;5035465;28;20025;-72
2020/12/01 01:43:55;;;;;;;32.50;16.17;;;;;;;-0.58;89.67;98931.75;5044525;28;20108;-72
2020/12/01 01:46:41;;;;;;;37.33;16.70;;;;;;;-0.63;89.59;98919.84;5043885;28;20034;-73
2020/12/01 01:49:12;;;;;;;33.47;14.60;;;;;;;-0.47;89.00;98920.25;5035647;28;20034;-73
2020/12/01 01:51:40;;;;;;;33.72;15.52;;;;;;;-0.47;89.52;98920.25;5037498;28;20079;-73
2020/12/01 01:54:07;;;;;;;30.52;14.80;;;;;;;-0.62;89.62;98887.00;5042137;28;20026;-72
2020/12/01 01:56:38;;;;;;;35.60;16.13;;;;;;;-0.50;89.83;98908.06;5031091;28;20040;-74
2020/12/01 01:59:05;;;;;;;32.42;14.73;;;;;;;-0.49;89.75;98896.44;5042910;28;20030;-73
2020/12/01 02:01:30;;;;;;;31.17;14.57;;;;;;;-0.48;89.74;98882.19;5032708;28;20036;-73
2020/12/01 02:04:00;;;;;;;35.80;15.05;;;;;;;-0.32;89.89;98873.72;5036820;28;20025;-73
2020/12/01 02:06:30;;;;;;;36.90;15.52;;;;;;;-0.36;90.04;98871.50;5039785;28;20040;-73
2020/12/01 02:08:59;;;;;;;38.33;15.82;;;;;;;-0.30;90.01;98861.16;5033107;28;20046;-73
2020/12/01 02:11:27;;;;;;;32.95;14.90;;;;;;;-0.50;89.83;98841.63;5027301;28;20028;-75
2020/12/01 02:14:03;;;;;;;37.75;15.27;;;;;;;-0.47;90.05;98846.69;5039190;28;20057;-73
2020/12/01 02:16:28;;;;;;;33.72;14.85;;;;;;;-0.55;90.32;98827.03;5023704;28;20729;-73
2020/12/01 02:18:54;;;;;;;29.23;14.23;;;;;;;-0.50;90.48;98830.13;5043979;28;20053;-74
2020/12/01 02:21:33;;;;;;;37.08;14.65;;;;;;;-0.46;90.49;98820.94;5027825;28;20029;-74
2020/12/01 02:24:02;;;;;;;39.78;15.38;;;;;;;-0.42;90.75;98826.81;5039084;28;20059;-73
2020/12/01 02:26:28;;;;;;;33.55;14.68;;;;;;;-0.53;90.43;98803.84;5038848;28;20129;-73
2020/12/01 02:28:54;;;;;;;33.13;14.90;;;;;;;-0.49;90.82;98802.59;5039382;28;20045;-73
2020/12/01 02:31:20;;;;;;;35.92;15.55;;;;;;;-0.48;91.16;98788.34;5039249;28;20025;-73
2020/12/01 02:33:45;;;;;;;41.40;16.65;;;;;;;-0.52;90.98;98781.63;5041305;28;20036;-74
2020/12/01 02:36:10;;;;;;;35.58;15.43;;;;;;;-0.58;90.88;98768.84;5042353;28;20096;-73
2020/12/01 02:38:36;;;;;;;46.00;16.98;;;;;;;-0.59;91.56;98769.84;5038850;28;20066;-73
2020/12/01 02:41:01;;;;;;;44.53;16.50;;;;;;;-0.51;91.68;98777.97;5042801;28;20489;-73
2020/12/01 02:43:26;;;;;;;40.85;15.93;;;;;;;-0.41;91.82;98784.16;5043468;28;20029;-74
2020/12/01 02:45:52;;;;;;;37.97;15.40;;;;;;;-0.45;91.92;98766.78;5044810;28;20022;-74
2020/12/01 02:48:17;;;;;;;37.88;15.00;;;;;;;-0.51;91.58;98756.72;5043589;28;20124;-72
2020/12/01 02:50:42;;;;;;;37.80;15.25;;;;;;;-0.41;91.63;98760.25;5041919;28;20072;-74
2020/12/01 02:53:07;;;;;;;31.58;15.10;;;;;;;-0.40;91.91;98743.31;5029531;28;20068;-74
2020/12/01 02:55:33;;;;;;;38.53;15.40;;;;;;;-0.49;91.95;98714.91;5019723;28;20064;-76
2020/12/01 02:57:58;;;;;;;43.22;15.68;;;;;;;-0.30;92.01;98733.56;5017257;28;20022;-75
2020/12/01 03:00:23;;;;;;;41.85;15.10;;;;;;;-0.30;91.89;98725.56;5015659;28;20034;-75
2020/12/01 03:02:48;;;;;;;37.13;15.57;;;;;;;-0.28;91.90;98723.63;5031245;28;20034;-75
2020/12/01 03:07:39;;;;;;;37.92;14.80;;;;;;;-0.19;92.04;98718.47;5092725;22;20049;-70
2020/12/01 03:10:06;;;;;;;38.85;15.82;;;;;;;-0.22;91.63;98722.25;5056089;28;20040;-70
2020/12/01 03:12:31;;;;;;;39.17;15.40;;;;;;;-0.18;91.73;98720.13;5055369;28;20028;-70
2020/12/01 03:14:58;;;;;;;39.55;15.25;;;;;;;-0.24;91.29;98717.06;5053680;28;20109;-71
2020/12/01 03:17:23;;;;;;;41.08;15.57;;;;;;;-0.16;91.98;98704.88;5035907;28;20025;-71
2020/12/01 03:19:49;;;;;;;39.25;15.50;;;;;;;-0.05;91.16;98707.44;5029009;28;20407;-70
2020/12/01 03:22:14;;;;;;;35.17;14.65;;;;;;;-0.06;91.42;98698.59;5029436;28;20032;-70
2020/12/01 03:24:39;;;;;;;37.75;14.93;;;;;;;-0.04;90.98;98701.97;5039638;28;20037;-70
2020/12/01 03:27:04;;;;;;;35.03;13.65;;;;;;;-0.01;90.87;98703.50;5016978;28;20026;-70
2020/12/01 03:29:30;;;;;;;34.08;14.00;;;;;;;-0.03;90.59;98703.66;5017155;28;20104;-70
2020/12/01 03:31:55;;;;;;;34.70;14.63;;;;;;;-0.08;90.68;98707.69;5020899;28;20027;-70
2020/12/01 03:34:20;;;;;;;37.70;13.48;;;;;;;-0.05;90.58;98697.66;5046380;28;20037;-70
2020/12/01 03:36:45;;;;;;;33.55;13.13;;;;;;;-0.06;91.06;98687.13;5015831;28;20100;-70
2020/12/01 03:39:11;;;;;;;33.13;14.15;;;;;;;-0.05;90.68;98694.16;5027348;28;20034;-70
2020/12/01 03:41:36;;;;;;;33.47;13.65;;;;;;;-0.05;91.07;98696.81;5029612;28;20028;-70
2020/12/01 03:44:02;;;;;;;33.40;14.15;;;;;;;-0.03;90.70;98702.81;5034367;28;20037;-70
2020/12/01 03:46:27;;;;;;;32.45;14.48;;;;;;;-0.03;91.21;98676.22;5024311;28;20025;-71
2020/12/01 03:48:52;;;;;;;30.20;13.23;;;;;;;0.00;90.70;98675.97;5015546;28;20480;-71
2020/12/01 03:51:17;;;;;;;30.38;13.50;;;;;;;0.10;90.91;98681.25;5016143;28;20037;-70
2020/12/01 03:53:43;;;;;;;31.70;13.45;;;;;;;0.18;90.32;98690.25;5034673;28;20064;-71
2020/12/01 03:56:08;;;;;;;33.38;13.20;;;;;;;0.11;90.52;98675.81;5034715;28;20063;-71
2020/12/01 03:58:33;;;;;;;33.88;14.57;;;;;;;0.19;90.42;98677.78;5032560;28;20024;-70
2020/12/01 04:00:58;;;;;;;33.58;13.07;;;;;;;-0.02;90.72;98646.81;5035314;28;20064;-71
2020/12/01 04:03:24;;;;;;;30.05;13.13;;;;;;;0.11;91.35;98670.50;5024106;28;20034;-71
2020/12/01 04:05:49;;;;;;;33.35;14.27;;;;;;;0.01;91.40;98661.66;5014675;28;20037;-71
2020/12/01 04:08:15;;;;;;;31.00;12.88;;;;;;;0.07;91.13;98670.91;5015546;28;20491;-71
2020/12/01 04:10:40;;;;;;;35.15;14.30;;;;;;;-0.02;91.77;98662.78;5013849;28;20046;-71
2020/12/01 04:13:06;;;;;;;32.65;14.57;;;;;;;0.03;92.13;98662.38;5027621;28;20036;-71
2020/12/01 04:15:32;;;;;;;33.67;13.88;;;;;;;-0.09;91.90;98648.38;5015688;28;20061;-71
2020/12/01 04:17:57;;;;;;;34.50;14.55;;;;;;;0.00;92.11;98665.31;5030752;28;20026;-70
2020/12/01 04:20:22;;;;;;;33.50;14.77;;;;;;;-0.01;92.08;98661.78;5015160;28;20116;-71
2020/12/01 04:22:48;;;;;;;36.03;14.30;;;;;;;0.01;92.56;98666.16;5034446;28;20025;-71
2020/12/01 04:25:16;;;;;;;31.48;12.98;;;;;;;0.01;92.60;98663.50;5014811;28;20048;-71
2020/12/01 04:27:42;;;;;;;29.95;12.52;;;;;;;0.01;92.53;98663.50;5031511;28;20084;-71
2020/12/01 04:30:08;;;;;;;38.25;13.93;;;;;;;-0.06;92.34;98647.25;5043027;28;20041;-71
2020/12/01 04:32:33;;;;;;;27.88;13.55;;;;;;;0.02;92.29;98663.34;5029465;28;20586;-71
2020/12/01 04:34:59;;;;;;;32.05;13.85;;;;;;;-0.02;92.17;98662.78;5034137;28;20068;-71
2020/12/01 04:37:24;;;;;;;31.90;13.40;;;;;;;0.00;92.38;98660.00;5026522;28;20026;-71
2020/12/01 04:39:50;;;;;;;37.05;14.48;;;;;;;0.08;92.62;98656.59;5017321;28;20041;-71
2020/12/01 04:42:17;;;;;;;30.48;13.60;;;;;;;0.06;92.59;98651.44;5019015;28;20033;-71
2020/12/01 04:45:10;;;;;;;33.30;13.30;;;;;;;0.07;92.49;98660.25;5015073;28;20069;-71
2020/12/01 04:47:57;;;;;;;29.35;12.63;;;;;;;0.21;92.31;98655.38;5043068;28;20044;-70
2020/12/01 04:50:34;;;;;;;30.05;12.57;;;;;;;-0.03;92.29;98623.03;5037461;28;20083;-76
2020/12/01 04:53:32;;;;;;;31.70;13.10;;;;;;;0.14;92.44;98656.91;5032797;28;20287;-77
2020/12/01 04:56:30;;;;;;;33.60;13.15;;;;;;;0.10;92.44;98652.84;5033594;28;20025;-76
2020/12/01 04:59:21;;;;;;;29.60;13.50;;;;;;;0.14;92.51;98650.75;5034130;28;20518;-69
2020/12/01 05:02:21;;;;;;;33.78;13.63;;;;;;;0.17;92.45;98653.13;5034521;28;20026;-73
2020/12/01 05:05:25;;;;;;;33.08;12.98;;;;;;;0.14;93.06;98642.78;5032174;28;20025;-70
2020/12/01 05:08:14;;;;;;;34.25;13.40;;;;;;;0.19;93.03;98657.31;5021167;28;20025;-69
2020/12/01 05:10:44;;;;;;;34.53;12.68;;;;;;;0.22;92.34;98641.06;5032315;28;20391;-69
2020/12/01 05:13:24;;;;;;;31.58;13.68;;;;;;;0.20;92.84;98637.72;5033584;28;20109;-70
2020/12/01 05:15:54;;;;;;;28.08;12.13;;;;;;;0.20;92.30;98627.06;5031684;28;20025;-70
2020/12/01 05:18:24;;;;;;;32.60;13.30;;;;;;;0.28;92.41;98644.97;5022653;28;20028;-73
2020/12/01 05:20:56;;;;;;;27.40;12.98;;;;;;;0.24;92.50;98640.06;5026573;28;20156;-71
2020/12/01 05:23:33;;;;;;;37.00;13.07;;;;;;;0.19;92.36;98630.72;5028049;28;22546;-74
2020/12/01 05:26:07;;;;;;;42.33;14.90;;;;;;;0.26;92.42;98643.44;5038195;28;20028;-75
2020/12/01 05:28:46;;;;;;;60.67;21.52;;;;;;;0.20;92.36;98635.03;5027052;28;20021;-75
2020/12/01 05:31:12;;;;;;;41.60;16.52;;;;;;;0.26;92.14;98627.47;5018915;28;20083;-74
2020/12/01 05:33:37;;;;;;;38.85;15.18;;;;;;;0.20;92.38;98610.28;5048525;28;20033;-75
2020/12/01 05:36:23;;;;;;;37.63;16.63;;;;;;;0.25;92.37;98625.81;5030539;28;20084;-76
2020/12/01 05:39:01;;;;;;;39.60;16.02;;;;;;;0.27;93.18;98630.00;5036069;28;20033;-74
2020/12/01 05:41:47;;;;;;;38.72;15.60;;;;;;;0.26;93.03;98616.84;5019403;28;20025;-73
2020/12/01 05:44:20;;;;;;;34.88;14.25;;;;;;;0.48;92.31;98626.34;5031096;28;20503;-70
2020/12/01 05:46:52;;;;;;;34.90;13.27;;;;;;;0.48;92.21;98613.88;5039921;28;20040;-75
2020/12/01 05:49:36;;;;;;;31.58;12.13;;;;;;;0.61;91.40;98629.53;5031119;28;20045;-76
2020/12/01 05:52:23;;;;;;;30.33;12.48;;;;;;;0.51;91.29;98626.03;5034654;28;20060;-72
2020/12/01 05:55:07;;;;;;;30.55;12.52;;;;;;;0.34;92.36;98624.94;5027160;28;20086;-70
2020/12/01 05:57:33;;;;;;;31.48;13.48;;;;;;;0.33;91.98;98610.81;5046235;28;20018;-70
2020/12/01 06:00:14;;;;;;;39.78;16.67;;;;;;;0.58;91.86;98633.31;5028803;28;20483;-73
2020/12/01 06:03:20;;;;;;;38.83;17.73;;;;;;;0.61;91.04;98630.34;5041101;28;20065;-74
2020/12/01 06:05:48;;;;;;;37.22;15.70;;;;;;;0.61;91.28;98625.03;5014271;28;20506;-73
2020/12/01 06:08:49;;;;;;;34.75;14.80;;;;;;;0.59;91.14;98628.81;5033797;28;20018;-73
2020/12/01 06:11:27;;;;;;;35.67;14.80;;;;;;;0.55;91.01;98622.97;5017087;28;20064;-71
2020/12/01 06:13:59;;;;;;;30.35;13.45;;;;;;;0.39;91.83;98625.34;5030821;28;20029;-72
2020/12/01 06:16:33;;;;;;;33.08;13.90;;;;;;;0.47;91.72;98633.47;5032682;28;20068;-72
2020/12/01 06:19:21;;;;;;;31.75;13.60;;;;;;;0.50;91.60;98627.00;5033108;28;20029;-72
2020/12/01 06:22:09;;;;;;;32.47;13.52;;;;;;;0.38;91.99;98627.19;5024986;28;20116;-74
2020/12/01 06:24:49;;;;;;;31.58;12.93;;;;;;;0.28;92.41;98625.53;5053045;28;20053;-75
2020/12/01 06:27:47;;;;;;;33.22;13.05;;;;;;;0.45;92.23;98635.44;5047269;28;20013;-74
2020/12/01 06:30:19;;;;;;;30.95;12.77;;;;;;;0.58;91.99;98628.00;5045408;28;20033;-75
2020/12/01 06:33:08;;;;;;;30.27;12.93;;;;;;;0.50;91.87;98625.22;5043113;28;20140;-70
2020/12/01 06:36:14;;;;;;;31.27;12.50;;;;;;;0.43;92.23;98634.75;5051646;28;20033;-78
2020/12/01 06:38:52;;;;;;;29.77;14.25;;;;;;;0.44;92.01;98628.44;5038597;28;20046;-72
2020/12/01 06:41:22;;;;;;;36.25;14.48;;;;;;;0.36;92.55;98622.97;5031873;28;20026;-77
2020/12/01 06:43:54;;;;;;;37.88;15.32;;;;;;;0.32;92.79;98632.25;5034285;28;20028;-73
2020/12/01 06:46:43;;;;;;;33.25;13.95;;;;;;;0.37;92.83;98619.34;5031070;28;20083;-76
2020/12/01 06:49:11;;;;;;;28.25;11.30;;;;;;;0.33;93.07;98625.94;5022560;28;20050;-74
2020/12/01 06:51:38;;;;;;;37.73;14.27;;;;;;;0.37;92.62;98624.69;5021367;28;20034;-74
2020/12/01 06:54:12;;;;;;;29.90;13.43;;;;;;;0.36;92.86;98630.97;5020665;28;20032;-72
2020/12/01 06:56:38;;;;;;;28.60;13.35;;;;;;;0.33;93.04;98628.59;5035214;28;20482;-74
2020/12/01 06:59:12;;;;;;;32.40;13.05;;;;;;;0.27;92.67;98629.19;5032457;28;20040;-74
2020/12/01 07:01:40;;;;;;;34.22;14.48;;;;;;;0.27;93.19;98624.69;5029932;28;20036;-74
2020/12/01 07:04:08;;;;;;;36.17;14.15;;;;;;;0.35;92.62;98638.13;5016815;28;20050;-74
2020/12/01 07:06:49;;;;;;;31.15;13.40;;;;;;;0.31;92.78;98625.22;5013781;28;20026;-75
2020/12/01 07:09:18;;;;;;;39.67;15.35;;;;;;;0.54;92.34;98631.91;5028284;28;20030;-73
2020/12/01 07:12:00;;;;;;;42.58;15.68;;;;;;;0.46;92.51;98631.78;5032085;28;20056;-72
2020/12/01 07:14:56;;;;;;;42.72;15.82;;;;;;;0.59;92.79;98627.00;5023541;28;20028;-66
2020/12/01 07:17:21;;;;;;;36.55;14.85;;;;;;;0.51;92.91;98626.88;5028841;28;20025;-71
2020/12/01 07:20:28;;;;;;;34.28;14.48;;;;;;;0.49;92.63;98628.00;5051892;28;20025;-70
2020/12/01 07:23:16;;;;;;;31.05;13.27;;;;;;;0.56;93.07;98627.28;5035902;28;20098;-70
2020/12/01 07:25:55;;;;;;;29.85;13.15;;;;;;;0.52;92.66;98617.91;5042052;28;20025;-71
2020/12/01 07:28:26;;;;;;;;;;;;;;;0.56;92.93;98619.31;5032577;28;20034;-71
2020/12/01 07:30:58;;;;;;;29.60;13.63;;;;;;;0.66;92.01;98624.59;5032464;28;19955;-69
2020/12/01 07:33:28;;;;;;;27.80;13.77;;;;;;;0.57;92.05;98615.63;5025212;28;20033;-77
2020/12/01 07:36:11;;;;;;;34.30;13.07;;;;;;;0.62;91.67;98612.56;5051268;28;20458;-70
2020/12/01 07:38:40;;;;;;;33.38;13.57;;;;;;;0.47;91.89;98614.81;5035665;28;20025;-68
2020/12/01 07:41:23;;;;;;;;;;;;;;;0.76;91.47;98620.09;5034145;28;20037;-75
2020/12/01 07:44:03;;;;;;;35.47;13.60;;;;;;;0.53;91.64;98624.91;5031779;28;19980;-72
2020/12/01 07:46:28;;;;;;;37.05;15.23;;;;;;;0.42;92.34;98623.25;5034282;28;20517;-75
2020/12/01 07:49:01;;;;;;;37.03;14.55;;;;;;;0.50;92.36;98629.66;5025072;28;20061;-76
2020/12/01 07:51:29;;;;;;;38.88;14.93;;;;;;;0.65;92.12;98623.78;5036732;28;20033;-73
2020/12/01 07:53:57;;;;;;;33.05;14.13;;;;;;;0.82;91.33;98635.47;5035912;28;20102;-75
2020/12/01 07:56:26;;;;;;;33.50;14.55;;;;;;;0.85;91.41;98639.66;5035418;28;20064;-76
2020/12/01 07:59:02;;;;;;;32.92;15.32;;;;;;;0.96;91.21;98642.16;5028221;28;20511;-69
2020/12/01 08:01:27;;;;;;;35.53;15.07;;;;;;;0.97;90.93;98649.16;5027195;28;20365;-69
2020/12/01 08:04:04;;;;;;;28.52;13.73;;;;;;;0.85;91.31;98645.00;5022487;28;20064;-69
2020/12/01 08:06:29;;;;;;;33.00;14.32;;;;;;;0.81;91.58;98654.25;5016909;28;20438;-69
2020/12/01 08:08:54;;;;;;;36.05;15.82;;;;;;;0.84;91.12;98638.84;5031659;28;20082;-69
2020/12/01 08:11:22;;;;;;;34.45;15.02;;;;;;;0.91;90.98;98644.41;5033311;28;20086;-68
2020/12/01 08:13:51;;;;;;;27.40;14.32;;;;;;;0.91;91.69;98656.88;5023887;28;20034;-69
2020/12/01 08:16:20;;;;;;;30.40;11.75;;;;;;;0.91;92.24;98655.06;5027555;28;20091;-69
2020/12/01 08:18:47;;;;;;;29.60;13.30;;;;;;;0.98;92.19;98650.00;5025995;28;20026;-72
2020/12/01 08:21:17;;;;;;;33.72;15.40;;;;;;;0.94;91.79;98636.13;5026044;28;20907;-74
2020/12/01 08:23:45;;;;;;;30.33;13.48;;;;;;;0.98;91.88;98637.50;5029970;28;20503;-72
2020/12/01 08:26:18;;;;;;;26.23;12.52;;;;;;;0.87;91.77;98614.56;5029425;28;20037;-76
2020/12/01 08:28:54;;;;;;;28.05;12.38;;;;;;;1.00;91.92;98630.22;5032573;28;20398;-78
2020/12/01 08:31:31;;;;;;;26.83;11.75;;;;;;;1.09;91.41;98639.97;5025499;28;20109;-76
2020/12/01 08:34:04;;;;;;;27.05;11.82;;;;;;;1.05;91.84;98638.63;5034543;28;20025;-72
2020/12/01 08:36:49;;;;;;;23.13;11.32;;;;;;;1.11;91.54;98645.19;5034266;28;20041;-75
2020/12/01 08:39:51;;;;;;;23.60;10.93;;;;;;;1.09;91.22;98644.47;5033929;28;20041;-75
2020/12/01 08:42:35;;;;;;;30.50;13.93;;;;;;;1.17;90.90;98652.56;5027963;28;20125;-76
2020/12/01 08:45:14;;;;;;;31.55;15.07;;;;;;;1.17;91.05;98636.59;5039692;28;20044;-75
2020/12/01 08:47:41;;;;;;;38.70;15.57;;;;;;;1.29;90.76;98632.75;5039417;28;20048;-76
2020/12/01 08:50:27;;;;;;;38.42;15.73;;;;;;;1.40;90.16;98637.03;5036771;28;20029;-76
2020/12/01 08:53:24;;;;;;;31.83;15.13;;;;;;;1.62;89.41;98645.59;5034526;28;20021;-75
2020/12/01 08:55:52;;;;;;;34.35;16.02;;;;;;;1.34;90.92;98618.13;5029729;28;20022;-71
2020/12/01 08:58:28;;;;;;;36.33;16.17;;;;;;;1.53;90.38;98653.50;5041139;28;20021;-77
2020/12/01 09:01:11;;;;;;;30.48;14.73;;;;;;;1.59;88.88;98653.91;5030300;28;20049;-76
2020/12/01 09:03:38;;;;;;;32.58;13.88;;;;;;;1.58;89.40;98653.06;5042315;28;20045;-71
2020/12/01 09:06:21;;;;;;;31.83;14.38;;;;;;;1.62;88.62;98637.59;5033343;22;20012;-73
2020/12/01 09:08:59;;;;;;;29.80;12.95;;;;;;;1.58;89.17;98652.22;5071105;28;20076;-73
2020/12/01 09:17:53;;;;;;;22.97;11.77;;;;;;;1.36;90.48;98643.63;5006300;28;20072;-76
2020/12/01 09:20:53;;;;;;;23.30;10.48;;;;;;;1.57;90.26;98662.03;5056932;28;20394;-73
2020/12/01 09:23:22;;;;;;;20.20;9.25;;;;;;;1.40;90.04;98644.19;5057866;28;20028;-82
2020/12/01 09:25:50;;;;;;;20.48;9.43;;;;;;;1.53;89.47;98655.34;5071232;28;20066;-77
2020/12/01 09:28:20;;;;;;;21.25;8.90;;;;;;;1.60;89.71;98668.91;5066170;28;20327;-76
2020/12/01 09:30:46;;;;;;;19.92;9.60;;;;;;;1.63;89.21;98668.63;5070283;28;20044;-79
2020/12/01 09:33:17;;;;;;;19.25;8.75;;;;;;;1.57;89.14;98669.19;5071021;28;20069;-77
2020/12/01 09:35:42;;;;;;;19.88;10.13;;;;;;;1.49;89.71;98672.59;5083361;28;20028;-77
2020/12/01 09:38:08;;;;;;;19.95;9.75;;;;;;;1.38;90.32;98676.31;5069046;28;20021;-74
2020/12/01 09:40:35;;;;;;;26.65;11.82;;;;;;;1.25;91.11;98663.31;5049174;28;20021;-76
2020/12/01 09:43:29;;;;;;;26.80;12.13;;;;;;;1.46;89.87;98672.91;5050805;28;20017;-74
2020/12/01 09:45:49;;;;;;;21.83;11.35;;;;;;;1.46;90.13;98671.06;5045381;28;20046;-72
2020/12/01 09:48:33;;;;;;;23.58;12.07;;;;;;;1.50;90.03;98667.13;5051734;28;20528;-73
2020/12/01 09:51:00;;;;;;;25.27;13.18;;;;;;;1.63;90.08;98665.94;5053313;28;20025;-75
2020/12/01 09:53:38;;;;;;;27.90;13.20;;;;;;;1.56;89.38;98656.88;5047625;28;20025;-75
2020/12/01 09:56:29;;;;;;;29.88;12.75;;;;;;;1.78;89.79;98658.25;5052182;28;20013;-76
2020/12/01 10:10:27;;;;;;;23.25;11.75;;;;;;;1.82;88.49;98655.16;5051758;28;20035;-75
2020/12/01 10:12:52;;;;;;;20.42;9.82;;;;;;;1.67;88.68;98661.97;5046551;28;20086;-73
2020/12/01 10:36:44;;;;;;;20.02;10.13;;;;;;;1.23;89.91;98683.97;5051632;28;20035;-74
2020/12/01 10:39:09;;;;;;;27.00;11.88;;;;;;;1.23;90.41;98689.31;5047489;28;20418;-73
2020/12/01 10:41:39;;;;;;;25.77;11.32;;;;;;;1.17;90.60;98679.22;5052709;28;20037;-75
2020/12/01 10:44:04;;;;;;;;;;;;;;;1.21;90.52;98685.13;5045870;28;20021;-76
2020/12/01 10:46:29;;;;;;;24.98;11.18;;;;;;;1.22;90.28;98668.97;5037942;28;19920;-76
2020/12/01 10:48:55;;;;;;;26.50;12.18;;;;;;;1.37;90.08;98677.31;5049493;28;20029;-75
2020/12/01 10:51:20;;;;;;;30.95;11.65;;;;;;;1.46;90.23;98668.41;5055352;28;20394;-76
2020/12/01 10:53:45;;;;;;;20.10;10.25;;;;;;;1.49;89.42;98660.13;5042837;28;20479;-76
2020/12/01 10:56:11;;;;;;;24.63;11.55;;;;;;;1.68;89.35;98666.34;5049516;28;20544;-76
2020/12/01 10:58:37;;;;;;;20.23;9.38;;;;;;;1.73;88.81;98659.56;5049535;28;20033;-75
2020/12/01 11:01:02;;;;;;;15.45;9.07;;;;;;;1.75;88.24;98659.41;5054657;28;20053;-76
2020/12/01 11:03:28;;;;;;;19.10;8.55;;;;;;;1.77;88.14;98657.44;5050605;28;20465;-76
2020/12/01 11:05:53;;;;;;;16.98;8.38;;;;;;;1.98;88.93;98659.81;5047389;28;20432;-75
2020/12/01 11:08:19;;;;;;;20.30;9.10;;;;;;;2.18;88.21;98665.84;5054628;28;20489;-75
2020/12/01 11:10:44;;;;;;;18.02;9.20;;;;;;;2.27;87.53;98653.38;5054019;28;20028;-71
2020/12/01 11:13:10;;;;;;;20.80;9.52;;;;;;;2.34;86.86;98671.31;5055385;28;20076;-74
2020/12/01 11:15:35;;;;;;;22.23;10.75;;;;;;;2.38;87.06;98672.69;5044853;28;20432;-71
2020/12/01 11:18:01;;;;;;;19.38;10.05;;;;;;;2.17;87.21;98678.34;5043047;28;20052;-73
2020/12/01 11:20:26;;;;;;;21.20;10.07;;;;;;;1.93;88.26;98676.25;5044207;28;20398;-73
2020/12/01 11:22:52;;;;;;;20.30;9.82;;;;;;;1.90;88.71;98683.72;5055587;28;20028;-74
2020/12/01 11:25:19;;;;;;;19.05;9.77;;;;;;;1.91;88.45;98680.94;5055066;28;20021;-73
2020/12/01 11:27:45;;;;;;;17.85;9.75;;;;;;;1.89;88.23;98676.72;5053516;28;20021;-72
2020/12/01 11:30:10;;;;;;;19.35;9.73;;;;;;;1.81;88.56;98674.81;5052713;28;20023;-73
2020/12/01 11:32:36;;;;;;;21.58;10.63;;;;;;;1.61;89.27;98671.41;5055140;28;20107;-73
2020/12/01 11:35:02;;;;;;;21.92;9.88;;;;;;;1.79;88.72;98668.78;5046540;28;20075;-73
2020/12/01 11:37:28;;;;;;;18.15;9.35;;;;;;;1.76;88.67;98682.44;5062069;28;20518;-73
2020/12/01 11:39:53;;;;;;;18.90;8.98;;;;;;;1.65;88.91;98679.94;5032748;28;20069;-72
2020/12/01 11:42:18;;;;;;;18.88;9.50;;;;;;;1.44;89.71;98654.41;5033435;28;20387;-74
2020/12/01 11:44:44;;;;;;;20.70;11.13;;;;;;;1.61;90.28;98668.75;5051932;28;20024;-74
2020/12/01 11:47:09;;;;;;;19.00;9.25;;;;;;;1.58;89.59;98661.06;5049097;28;20029;-75
2020/12/01 11:49:34;;;;;;;16.48;8.98;;;;;;;1.79;89.07;98674.13;5048981;28;20547;-74
2020/12/01 11:52:00;;;;;;;17.25;8.57;;;;;;;1.77;88.89;98664.59;5039380;28;20025;-75
2020/12/01 11:54:26;;;;;;;15.43;8.38;;;;;;;1.86;89.18;98683.22;5039317;28;20398;-75
2020/12/01 11:56:51;;;;;;;17.90;9.50;;;;;;;1.85;89.29;98668.16;5035627;28;20055;-75
2020/12/01 11:59:16;;;;;;;18.60;9.45;;;;;;;2.02;88.93;98681.66;5047729;28;20497;-74
2020/12/01 12:01:41;;;;;;;20.23;8.70;;;;;;;1.87;89.07;98674.19;5046421;28;20021;-75
2020/12/01 12:04:07;;;;;;;20.00;10.02;;;;;;;1.78;88.71;98691.09;5049140;28;20497;-74
2020/12/01 12:06:35;;;;;;;18.05;10.15;;;;;;;1.65;89.48;98688.81;5049834;28;20028;-73
2020/12/01 12:09:00;;;;;;;20.13;10.15;;;;;;;1.67;89.54;98685.97;5047797;28;20029;-74
2020/12/01 12:11:26;;;;;;;20.25;9.82;;;;;;;1.59;89.52;98681.38;5036041;28;20033;-74
2020/12/01 12:13:51;;;;;;;19.85;10.13;;;;;;;1.50;89.50;98692.97;5031656;28;20078;-77
2020/12/01 12:16:18;;;;;;;16.95;9.23;;;;;;;1.52;89.70;98697.16;5031384;28;20039;-77
2020/12/01 12:18:46;;;;;;;21.55;9.85;;;;;;;1.59;89.69;98701.88;5042276;28;20445;-76
2020/12/01 12:21:13;;;;;;;17.30;9.18;;;;;;;1.53;89.89;98696.16;5056451;28;20131;-76
2020/12/01 12:23:38;;;;;;;19.35;9.95;;;;;;;1.41;90.39;98678.69;5036337;28;20088;-76